Terminal Aerodrome Forecast
Issued by NWS

Home | Current Version | Previous Version | Text Only | Print | Product List | Glossary On
Versions: 1 2 3 4 5 6 7 8 9 10 11 12 13 14 15 16 17 18 19 20 21 22 23 24
443
FTUS41 KGYX 111743
TAFRKD
TAF
KRKD 111743Z 1118/1218 29009KT P6SM BKN050
      TEMPO 1118/1122 -SHSN
     FM112200 30010G20KT P6SM SCT050
     FM120400 28007KT P6SM SKC
      AMD LTD TO CLD VIS AND WIND=

USA.gov is the U.S. government's official web portal to all federal, state and local government web resources and services.